Gilleleje, Denmark
Current Conditions -  °F | °C
As of 9:50 PM on Sunday 21 Dec 2014 (Local Time) from ESTA Reporting Station
Light Rain Light Rain  
Wind Chill: 36°   Ceiling: 600
Heat Index: 45°   Visibility: 5mi
Dew Point: 43°   Wind: 23mph
Humidity: 93%   Direction: 240°WSW
Pressure: 29.59"   Gusts: NA
Location:  56.12°N, 12.31°E
Report Text: ESTA 212050Z AUTO 24020KT 8000 -RA OVC006/// 07/06 Q1002
Loading
Personal Weather Stations






























Interactive Weather Map New forecast layout! Learn more

10-Day Weather Forecast

Advertisements
Track Severe Weather on mobile